sensor_id;sensor_type;location;lat;lon;timestamp;P1;durP1;ratioP1;P2;durP2;ratioP2
32748;SDS011;19119;52.474;13.710;2024-02-23T00:00:30;0.93;;;0.80;;
32748;SDS011;19119;52.474;13.710;2024-02-23T00:02:55;2.95;;;0.90;;
32748;SDS011;19119;52.474;13.710;2024-02-23T00:05:22;1.58;;;1.00;;
32748;SDS011;19119;52.474;13.710;2024-02-23T00:07:48;1.13;;;0.88;;
32748;SDS011;19119;52.474;13.710;2024-02-23T00:10:14;1.58;;;1.00;;
32748;SDS011;19119;52.474;13.710;2024-02-23T00:12:40;1.70;;;1.17;;
32748;SDS011;19119;52.474;13.710;2024-02-23T00:15:06;1.80;;;1.35;;
32748;SDS011;19119;52.474;13.710;2024-02-23T00:17:32;2.08;;;1.00;;
32748;SDS011;19119;52.474;13.710;2024-02-23T00:19:57;1.95;;;1.02;;
32748;SDS011;19119;52.474;13.710;2024-02-23T00:22:23;1.17;;;0.88;;
32748;SDS011;19119;52.474;13.710;2024-02-23T00:24:50;1.48;;;0.90;;
32748;SDS011;19119;52.474;13.710;2024-02-23T00:27:16;3.42;;;1.00;;
32748;SDS011;19119;52.474;13.710;2024-02-23T00:29:41;1.40;;;0.90;;
32748;SDS011;19119;52.474;13.710;2024-02-23T00:32:07;1.42;;;0.93;;
32748;SDS011;19119;52.474;13.710;2024-02-23T00:34:32;2.92;;;1.00;;
32748;SDS011;19119;52.474;13.710;2024-02-23T00:36:58;2.13;;;0.80;;
32748;SDS011;19119;52.474;13.710;2024-02-23T00:39:23;2.60;;;1.10;;
32748;SDS011;19119;52.474;13.710;2024-02-23T00:41:49;3.35;;;1.20;;
32748;SDS011;19119;52.474;13.710;2024-02-23T00:44:14;1.17;;;0.80;;
32748;SDS011;19119;52.474;13.710;2024-02-23T00:46:40;2.13;;;1.00;;
32748;SDS011;19119;52.474;13.710;2024-02-23T00:49:05;6.93;;;0.98;;
32748;SDS011;19119;52.474;13.710;2024-02-23T00:51:31;2.65;;;1.08;;
32748;SDS011;19119;52.474;13.710;2024-02-23T00:53:56;1.85;;;1.00;;
32748;SDS011;19119;52.474;13.710;2024-02-23T00:56:22;1.80;;;1.10;;
32748;SDS011;19119;52.474;13.710;2024-02-23T00:58:48;3.70;;;0.80;;
32748;SDS011;19119;52.474;13.710;2024-02-23T01:01:13;2.25;;;1.05;;
32748;SDS011;19119;52.474;13.710;2024-02-23T01:03:39;1.33;;;0.80;;
32748;SDS011;19119;52.474;13.710;2024-02-23T01:06:04;1.83;;;1.02;;
32748;SDS011;19119;52.474;13.710;2024-02-23T01:08:30;1.50;;;0.90;;
32748;SDS011;19119;52.474;13.710;2024-02-23T01:10:56;1.15;;;0.73;;
32748;SDS011;19119;52.474;13.710;2024-02-23T01:13:21;4.28;;;0.90;;
32748;SDS011;19119;52.474;13.710;2024-02-23T01:15:47;1.30;;;0.80;;
32748;SDS011;19119;52.474;13.710;2024-02-23T01:18:12;1.95;;;1.10;;
32748;SDS011;19119;52.474;13.710;2024-02-23T01:20:38;1.25;;;0.80;;
32748;SDS011;19119;52.474;13.710;2024-02-23T01:23:03;1.00;;;0.57;;
32748;SDS011;19119;52.474;13.710;2024-02-23T01:25:29;1.40;;;0.75;;
32748;SDS011;19119;52.474;13.710;2024-02-23T01:27:54;1.67;;;1.00;;
32748;SDS011;19119;52.474;13.710;2024-02-23T01:30:20;1.90;;;1.00;;
32748;SDS011;19119;52.474;13.710;2024-02-23T01:32:45;2.03;;;1.10;;
32748;SDS011;19119;52.474;13.710;2024-02-23T01:35:11;1.52;;;1.02;;
32748;SDS011;19119;52.474;13.710;2024-02-23T01:37:37;1.48;;;0.98;;
32748;SDS011;19119;52.474;13.710;2024-02-23T01:40:02;2.05;;;1.17;;
32748;SDS011;19119;52.474;13.710;2024-02-23T01:42:28;1.42;;;0.82;;
32748;SDS011;19119;52.474;13.710;2024-02-23T01:44:54;1.10;;;0.80;;
32748;SDS011;19119;52.474;13.710;2024-02-23T01:47:21;2.00;;;0.85;;
32748;SDS011;19119;52.474;13.710;2024-02-23T01:49:48;1.20;;;0.90;;
32748;SDS011;19119;52.474;13.710;2024-02-23T01:52:13;0.93;;;0.73;;
32748;SDS011;19119;52.474;13.710;2024-02-23T01:54:40;1.65;;;1.00;;
32748;SDS011;19119;52.474;13.710;2024-02-23T01:57:06;4.03;;;0.88;;
32748;SDS011;19119;52.474;13.710;2024-02-23T01:59:33;1.40;;;0.85;;
32748;SDS011;19119;52.474;13.710;2024-02-23T02:02:02;1.35;;;0.70;;
32748;SDS011;19119;52.474;13.710;2024-02-23T02:04:28;1.00;;;0.75;;
32748;SDS011;19119;52.474;13.710;2024-02-23T02:06:53;1.55;;;1.05;;
32748;SDS011;19119;52.474;13.710;2024-02-23T02:09:20;1.63;;;0.90;;
32748;SDS011;19119;52.474;13.710;2024-02-23T02:11:46;2.45;;;0.80;;
32748;SDS011;19119;52.474;13.710;2024-02-23T02:14:12;1.08;;;0.70;;
32748;SDS011;19119;52.474;13.710;2024-02-23T02:16:38;1.83;;;0.82;;
32748;SDS011;19119;52.474;13.710;2024-02-23T02:19:03;3.50;;;0.90;;
32748;SDS011;19119;52.474;13.710;2024-02-23T02:21:29;1.00;;;0.70;;
32748;SDS011;19119;52.474;13.710;2024-02-23T02:23:56;1.70;;;1.00;;
32748;SDS011;19119;52.474;13.710;2024-02-23T02:26:21;4.70;;;1.02;;
32748;SDS011;19119;52.474;13.710;2024-02-23T02:28:47;1.35;;;0.70;;
32748;SDS011;19119;52.474;13.710;2024-02-23T02:31:12;1.83;;;0.70;;
32748;SDS011;19119;52.474;13.710;2024-02-23T02:33:39;1.13;;;1.00;;
32748;SDS011;19119;52.474;13.710;2024-02-23T02:36:05;1.23;;;0.80;;
32748;SDS011;19119;52.474;13.710;2024-02-23T02:38:31;1.23;;;0.70;;
32748;SDS011;19119;52.474;13.710;2024-02-23T02:40:58;1.20;;;0.80;;
32748;SDS011;19119;52.474;13.710;2024-02-23T02:43:25;0.77;;;0.65;;
32748;SDS011;19119;52.474;13.710;2024-02-23T02:45:51;0.38;;;0.28;;
32748;SDS011;19119;52.474;13.710;2024-02-23T02:48:16;0.65;;;0.40;;
32748;SDS011;19119;52.474;13.710;2024-02-23T02:50:42;2.55;;;0.30;;
32748;SDS011;19119;52.474;13.710;2024-02-23T02:53:08;0.57;;;0.47;;
32748;SDS011;19119;52.474;13.710;2024-02-23T02:55:35;1.70;;;0.45;;
32748;SDS011;19119;52.474;13.710;2024-02-23T02:58:01;6.07;;;0.60;;
32748;SDS011;19119;52.474;13.710;2024-02-23T03:00:26;0.30;;;0.28;;
32748;SDS011;19119;52.474;13.710;2024-02-23T03:02:52;0.30;;;0.30;;
32748;SDS011;19119;52.474;13.710;2024-02-23T03:05:18;0.85;;;0.30;;
32748;SDS011;19119;52.474;13.710;2024-02-23T03:07:44;1.70;;;0.32;;
32748;SDS011;19119;52.474;13.710;2024-02-23T03:10:09;0.95;;;0.40;;
32748;SDS011;19119;52.474;13.710;2024-02-23T03:12:35;0.50;;;0.20;;
32748;SDS011;19119;52.474;13.710;2024-02-23T03:15:00;0.30;;;0.22;;
32748;SDS011;19119;52.474;13.710;2024-02-23T03:17:27;1.85;;;0.40;;
32748;SDS011;19119;52.474;13.710;2024-02-23T03:19:53;5.47;;;0.95;;
32748;SDS011;19119;52.474;13.710;2024-02-23T03:22:19;0.57;;;0.43;;
32748;SDS011;19119;52.474;13.710;2024-02-23T03:24:44;0.38;;;0.25;;
32748;SDS011;19119;52.474;13.710;2024-02-23T03:27:10;0.40;;;0.40;;
32748;SDS011;19119;52.474;13.710;2024-02-23T03:29:35;0.75;;;0.38;;
32748;SDS011;19119;52.474;13.710;2024-02-23T03:32:00;0.45;;;0.30;;
32748;SDS011;19119;52.474;13.710;2024-02-23T03:34:26;0.17;;;0.17;;
32748;SDS011;19119;52.474;13.710;2024-02-23T03:36:52;0.38;;;0.20;;
32748;SDS011;19119;52.474;13.710;2024-02-23T03:39:17;1.17;;;0.50;;
32748;SDS011;19119;52.474;13.710;2024-02-23T03:41:43;1.13;;;0.40;;
32748;SDS011;19119;52.474;13.710;2024-02-23T03:44:08;0.43;;;0.25;;
32748;SDS011;19119;52.474;13.710;2024-02-23T03:46:34;0.77;;;0.38;;
32748;SDS011;19119;52.474;13.710;2024-02-23T03:49:00;1.15;;;0.38;;
32748;SDS011;19119;52.474;13.710;2024-02-23T03:51:26;0.90;;;0.40;;
32748;SDS011;19119;52.474;13.710;2024-02-23T03:53:51;0.38;;;0.30;;
32748;SDS011;19119;52.474;13.710;2024-02-23T03:56:17;2.13;;;0.50;;
32748;SDS011;19119;52.474;13.710;2024-02-23T03:58:42;0.68;;;0.30;;
32748;SDS011;19119;52.474;13.710;2024-02-23T04:01:08;2.40;;;0.30;;
32748;SDS011;19119;52.474;13.710;2024-02-23T04:03:34;1.08;;;0.40;;
32748;SDS011;19119;52.474;13.710;2024-02-23T04:06:00;2.75;;;0.75;;
32748;SDS011;19119;52.474;13.710;2024-02-23T04:08:25;0.60;;;0.40;;
32748;SDS011;19119;52.474;13.710;2024-02-23T04:10:51;1.40;;;0.38;;
32748;SDS011;19119;52.474;13.710;2024-02-23T04:13:16;1.00;;;0.47;;
32748;SDS011;19119;52.474;13.710;2024-02-23T04:15:42;0.38;;;0.30;;
32748;SDS011;19119;52.474;13.710;2024-02-23T04:18:08;1.27;;;0.45;;
32748;SDS011;19119;52.474;13.710;2024-02-23T04:20:34;2.08;;;0.85;;
32748;SDS011;19119;52.474;13.710;2024-02-23T04:22:59;1.58;;;0.20;;
32748;SDS011;19119;52.474;13.710;2024-02-23T04:25:25;1.33;;;0.57;;
32748;SDS011;19119;52.474;13.710;2024-02-23T04:27:50;0.75;;;0.32;;
32748;SDS011;19119;52.474;13.710;2024-02-23T04:30:16;1.33;;;0.70;;
32748;SDS011;19119;52.474;13.710;2024-02-23T04:32:41;0.65;;;0.65;;
32748;SDS011;19119;52.474;13.710;2024-02-23T04:35:07;1.83;;;0.40;;
32748;SDS011;19119;52.474;13.710;2024-02-23T04:37:33;0.38;;;0.30;;
32748;SDS011;19119;52.474;13.710;2024-02-23T04:39:59;1.48;;;0.32;;
32748;SDS011;19119;52.474;13.710;2024-02-23T04:42:24;2.25;;;0.38;;
32748;SDS011;19119;52.474;13.710;2024-02-23T04:44:50;2.67;;;0.75;;
32748;SDS011;19119;52.474;13.710;2024-02-23T04:47:17;2.03;;;0.35;;
32748;SDS011;19119;52.474;13.710;2024-02-23T04:49:43;0.85;;;0.50;;
32748;SDS011;19119;52.474;13.710;2024-02-23T04:52:08;1.05;;;0.50;;
32748;SDS011;19119;52.474;13.710;2024-02-23T04:54:34;2.05;;;0.40;;
32748;SDS011;19119;52.474;13.710;2024-02-23T04:57:00;1.40;;;0.47;;
32748;SDS011;19119;52.474;13.710;2024-02-23T04:59:25;1.42;;;0.50;;
32748;SDS011;19119;52.474;13.710;2024-02-23T05:01:51;1.55;;;0.40;;
32748;SDS011;19119;52.474;13.710;2024-02-23T05:04:16;0.80;;;0.40;;
32748;SDS011;19119;52.474;13.710;2024-02-23T05:06:42;0.73;;;0.30;;
32748;SDS011;19119;52.474;13.710;2024-02-23T05:09:08;0.47;;;0.30;;
32748;SDS011;19119;52.474;13.710;2024-02-23T05:11:34;1.90;;;0.57;;
32748;SDS011;19119;52.474;13.710;2024-02-23T05:14:00;0.30;;;0.30;;
32748;SDS011;19119;52.474;13.710;2024-02-23T05:16:25;0.98;;;0.50;;
32748;SDS011;19119;52.474;13.710;2024-02-23T05:18:51;0.40;;;0.40;;
32748;SDS011;19119;52.474;13.710;2024-02-23T05:21:16;2.15;;;0.40;;
32748;SDS011;19119;52.474;13.710;2024-02-23T05:23:42;0.80;;;0.20;;
32748;SDS011;19119;52.474;13.710;2024-02-23T05:26:07;1.15;;;0.40;;
32748;SDS011;19119;52.474;13.710;2024-02-23T05:28:33;1.23;;;0.40;;
32748;SDS011;19119;52.474;13.710;2024-02-23T05:30:59;0.68;;;0.30;;
32748;SDS011;19119;52.474;13.710;2024-02-23T05:33:26;2.40;;;0.70;;
32748;SDS011;19119;52.474;13.710;2024-02-23T05:35:52;1.95;;;0.55;;
32748;SDS011;19119;52.474;13.710;2024-02-23T05:38:17;1.05;;;0.40;;
32748;SDS011;19119;52.474;13.710;2024-02-23T05:40:43;1.17;;;0.40;;
32748;SDS011;19119;52.474;13.710;2024-02-23T05:43:10;0.40;;;0.38;;
32748;SDS011;19119;52.474;13.710;2024-02-23T05:45:36;0.65;;;0.30;;
32748;SDS011;19119;52.474;13.710;2024-02-23T05:48:01;0.25;;;0.25;;
32748;SDS011;19119;52.474;13.710;2024-02-23T05:50:27;0.73;;;0.50;;
32748;SDS011;19119;52.474;13.710;2024-02-23T05:52:53;2.33;;;0.50;;
32748;SDS011;19119;52.474;13.710;2024-02-23T05:55:18;0.43;;;0.20;;
32748;SDS011;19119;52.474;13.710;2024-02-23T05:57:44;0.98;;;0.30;;
32748;SDS011;19119;52.474;13.710;2024-02-23T06:00:10;0.60;;;0.40;;
32748;SDS011;19119;52.474;13.710;2024-02-23T06:02:36;0.30;;;0.30;;
32748;SDS011;19119;52.474;13.710;2024-02-23T06:05:02;0.80;;;0.45;;
32748;SDS011;19119;52.474;13.710;2024-02-23T06:07:28;4.05;;;0.40;;
32748;SDS011;19119;52.474;13.710;2024-02-23T06:09:55;1.90;;;0.38;;
32748;SDS011;19119;52.474;13.710;2024-02-23T06:12:21;1.05;;;0.28;;
32748;SDS011;19119;52.474;13.710;2024-02-23T06:14:47;0.35;;;0.35;;
32748;SDS011;19119;52.474;13.710;2024-02-23T06:17:12;1.75;;;0.43;;
32748;SDS011;19119;52.474;13.710;2024-02-23T06:19:38;0.20;;;0.20;;
32748;SDS011;19119;52.474;13.710;2024-02-23T06:22:03;0.50;;;0.40;;
32748;SDS011;19119;52.474;13.710;2024-02-23T06:24:29;0.30;;;0.30;;
32748;SDS011;19119;52.474;13.710;2024-02-23T06:26:54;0.60;;;0.60;;
32748;SDS011;19119;52.474;13.710;2024-02-23T06:29:20;0.45;;;0.38;;
32748;SDS011;19119;52.474;13.710;2024-02-23T06:31:45;0.63;;;0.50;;
32748;SDS011;19119;52.474;13.710;2024-02-23T06:34:14;0.25;;;0.25;;
32748;SDS011;19119;52.474;13.710;2024-02-23T06:36:40;0.95;;;0.50;;
32748;SDS011;19119;52.474;13.710;2024-02-23T06:39:06;0.75;;;0.30;;
32748;SDS011;19119;52.474;13.710;2024-02-23T06:41:33;0.32;;;0.30;;
32748;SDS011;19119;52.474;13.710;2024-02-23T06:43:58;0.60;;;0.50;;
32748;SDS011;19119;52.474;13.710;2024-02-23T06:46:24;0.30;;;0.30;;
32748;SDS011;19119;52.474;13.710;2024-02-23T06:48:50;1.20;;;0.30;;
32748;SDS011;19119;52.474;13.710;2024-02-23T06:51:15;0.43;;;0.40;;
32748;SDS011;19119;52.474;13.710;2024-02-23T06:53:41;0.50;;;0.35;;
32748;SDS011;19119;52.474;13.710;2024-02-23T06:56:06;0.30;;;0.30;;
32748;SDS011;19119;52.474;13.710;2024-02-23T06:58:32;0.50;;;0.32;;
32748;SDS011;19119;52.474;13.710;2024-02-23T07:00:57;0.55;;;0.30;;
32748;SDS011;19119;52.474;13.710;2024-02-23T07:03:23;3.40;;;0.50;;
32748;SDS011;19119;52.474;13.710;2024-02-23T07:05:48;0.60;;;0.40;;
32748;SDS011;19119;52.474;13.710;2024-02-23T07:08:15;1.02;;;0.50;;
32748;SDS011;19119;52.474;13.710;2024-02-23T07:10:40;0.40;;;0.40;;
32748;SDS011;19119;52.474;13.710;2024-02-23T07:13:06;0.55;;;0.47;;
32748;SDS011;19119;52.474;13.710;2024-02-23T07:15:32;1.05;;;0.50;;
32748;SDS011;19119;52.474;13.710;2024-02-23T07:17:58;0.50;;;0.50;;
32748;SDS011;19119;52.474;13.710;2024-02-23T07:20:24;0.88;;;0.50;;
32748;SDS011;19119;52.474;13.710;2024-02-23T07:22:49;0.47;;;0.43;;
32748;SDS011;19119;52.474;13.710;2024-02-23T07:25:16;1.02;;;0.73;;
32748;SDS011;19119;52.474;13.710;2024-02-23T07:27:42;0.80;;;0.45;;
32748;SDS011;19119;52.474;13.710;2024-02-23T07:30:07;1.05;;;0.47;;
32748;SDS011;19119;52.474;13.710;2024-02-23T07:32:34;1.80;;;0.40;;
32748;SDS011;19119;52.474;13.710;2024-02-23T07:34:59;1.55;;;0.57;;
32748;SDS011;19119;52.474;13.710;2024-02-23T07:37:28;0.77;;;0.40;;
32748;SDS011;19119;52.474;13.710;2024-02-23T07:39:53;0.93;;;0.43;;
32748;SDS011;19119;52.474;13.710;2024-02-23T07:42:19;0.73;;;0.60;;
32748;SDS011;19119;52.474;13.710;2024-02-23T07:44:44;2.75;;;0.50;;
32748;SDS011;19119;52.474;13.710;2024-02-23T07:47:11;0.73;;;0.40;;
32748;SDS011;19119;52.474;13.710;2024-02-23T07:49:36;0.45;;;0.40;;
32748;SDS011;19119;52.474;13.710;2024-02-23T07:52:02;1.27;;;0.55;;
32748;SDS011;19119;52.474;13.710;2024-02-23T07:54:28;1.85;;;0.40;;
32748;SDS011;19119;52.474;13.710;2024-02-23T07:56:54;1.90;;;0.70;;
32748;SDS011;19119;52.474;13.710;2024-02-23T07:59:19;0.95;;;0.60;;
32748;SDS011;19119;52.474;13.710;2024-02-23T08:01:45;2.13;;;0.50;;
32748;SDS011;19119;52.474;13.710;2024-02-23T08:04:11;0.77;;;0.55;;
32748;SDS011;19119;52.474;13.710;2024-02-23T08:06:38;0.45;;;0.43;;
32748;SDS011;19119;52.474;13.710;2024-02-23T08:09:04;2.03;;;0.43;;
32748;SDS011;19119;52.474;13.710;2024-02-23T08:11:29;1.08;;;0.40;;
32748;SDS011;19119;52.474;13.710;2024-02-23T08:13:55;1.45;;;0.68;;
32748;SDS011;19119;52.474;13.710;2024-02-23T08:16:20;1.08;;;0.70;;
32748;SDS011;19119;52.474;13.710;2024-02-23T08:18:45;0.85;;;0.60;;
32748;SDS011;19119;52.474;13.710;2024-02-23T08:21:11;0.73;;;0.52;;
32748;SDS011;19119;52.474;13.710;2024-02-23T08:23:38;1.35;;;0.45;;
32748;SDS011;19119;52.474;13.710;2024-02-23T08:26:04;1.15;;;0.40;;
32748;SDS011;19119;52.474;13.710;2024-02-23T08:28:30;1.10;;;0.60;;
32748;SDS011;19119;52.474;13.710;2024-02-23T08:30:56;1.13;;;0.50;;
32748;SDS011;19119;52.474;13.710;2024-02-23T08:33:21;0.77;;;0.55;;
32748;SDS011;19119;52.474;13.710;2024-02-23T08:35:47;1.52;;;0.68;;
32748;SDS011;19119;52.474;13.710;2024-02-23T08:38:13;0.40;;;0.30;;
32748;SDS011;19119;52.474;13.710;2024-02-23T08:40:39;0.40;;;0.32;;
32748;SDS011;19119;52.474;13.710;2024-02-23T08:43:05;0.60;;;0.30;;
32748;SDS011;19119;52.474;13.710;2024-02-23T08:45:30;1.45;;;0.50;;
32748;SDS011;19119;52.474;13.710;2024-02-23T08:47:56;0.63;;;0.40;;
32748;SDS011;19119;52.474;13.710;2024-02-23T08:50:21;0.30;;;0.30;;
32748;SDS011;19119;52.474;13.710;2024-02-23T08:52:47;0.47;;;0.40;;
32748;SDS011;19119;52.474;13.710;2024-02-23T08:55:12;3.03;;;0.70;;
32748;SDS011;19119;52.474;13.710;2024-02-23T08:57:38;3.70;;;0.50;;
32748;SDS011;19119;52.474;13.710;2024-02-23T09:00:04;2.45;;;0.50;;
32748;SDS011;19119;52.474;13.710;2024-02-23T09:02:30;0.55;;;0.40;;
32748;SDS011;19119;52.474;13.710;2024-02-23T09:04:57;1.70;;;0.50;;
32748;SDS011;19119;52.474;13.710;2024-02-23T09:07:23;2.47;;;0.70;;
32748;SDS011;19119;52.474;13.710;2024-02-23T09:09:48;1.75;;;1.27;;
32748;SDS011;19119;52.474;13.710;2024-02-23T09:12:15;0.63;;;0.52;;
32748;SDS011;19119;52.474;13.710;2024-02-23T09:14:41;0.88;;;0.40;;
32748;SDS011;19119;52.474;13.710;2024-02-23T09:17:08;1.25;;;0.50;;
32748;SDS011;19119;52.474;13.710;2024-02-23T09:19:34;1.92;;;0.52;;
32748;SDS011;19119;52.474;13.710;2024-02-23T09:22:01;1.45;;;0.47;;
32748;SDS011;19119;52.474;13.710;2024-02-23T09:24:27;0.70;;;0.38;;
32748;SDS011;19119;52.474;13.710;2024-02-23T09:26:52;0.30;;;0.30;;
32748;SDS011;19119;52.474;13.710;2024-02-23T09:29:18;0.65;;;0.50;;
32748;SDS011;19119;52.474;13.710;2024-02-23T09:31:43;1.67;;;0.60;;
32748;SDS011;19119;52.474;13.710;2024-02-23T09:34:09;1.10;;;0.50;;
32748;SDS011;19119;52.474;13.710;2024-02-23T09:36:35;1.48;;;0.50;;
32748;SDS011;19119;52.474;13.710;2024-02-23T09:39:00;2.28;;;0.55;;
32748;SDS011;19119;52.474;13.710;2024-02-23T09:41:27;1.02;;;0.60;;
32748;SDS011;19119;52.474;13.710;2024-02-23T09:43:52;0.40;;;0.40;;
32748;SDS011;19119;52.474;13.710;2024-02-23T09:46:23;1.90;;;0.40;;
32748;SDS011;19119;52.474;13.710;2024-02-23T09:48:51;1.55;;;0.55;;
32748;SDS011;19119;52.474;13.710;2024-02-23T09:51:17;1.00;;;0.40;;
32748;SDS011;19119;52.474;13.710;2024-02-23T09:53:42;0.77;;;0.40;;
32748;SDS011;19119;52.474;13.710;2024-02-23T09:56:09;0.77;;;0.40;;
32748;SDS011;19119;52.474;13.710;2024-02-23T09:58:39;1.85;;;0.30;;
32748;SDS011;19119;52.474;13.710;2024-02-23T10:01:06;1.67;;;0.47;;
32748;SDS011;19119;52.474;13.710;2024-02-23T10:03:31;0.52;;;0.40;;
32748;SDS011;19119;52.474;13.710;2024-02-23T10:05:57;1.67;;;0.30;;
32748;SDS011;19119;52.474;13.710;2024-02-23T10:08:23;2.00;;;0.40;;
32748;SDS011;19119;52.474;13.710;2024-02-23T10:10:48;1.48;;;0.30;;
32748;SDS011;19119;52.474;13.710;2024-02-23T10:13:21;1.60;;;0.30;;
32748;SDS011;19119;52.474;13.710;2024-02-23T10:15:49;0.50;;;0.30;;
32748;SDS011;19119;52.474;13.710;2024-02-23T10:18:15;1.63;;;0.32;;
32748;SDS011;19119;52.474;13.710;2024-02-23T10:20:41;1.95;;;0.30;;
32748;SDS011;19119;52.474;13.710;2024-02-23T10:23:07;3.40;;;0.50;;
32748;SDS011;19119;52.474;13.710;2024-02-23T10:25:33;1.27;;;0.40;;
32748;SDS011;19119;52.474;13.710;2024-02-23T10:28:01;1.17;;;0.32;;
32748;SDS011;19119;52.474;13.710;2024-02-23T10:30:36;0.63;;;0.30;;
32748;SDS011;19119;52.474;13.710;2024-02-23T10:33:03;0.25;;;0.25;;
32748;SDS011;19119;52.474;13.710;2024-02-23T10:35:30;2.38;;;0.32;;
32748;SDS011;19119;52.474;13.710;2024-02-23T10:38:00;2.00;;;0.40;;
32748;SDS011;19119;52.474;13.710;2024-02-23T10:40:29;0.88;;;0.30;;
32748;SDS011;19119;52.474;13.710;2024-02-23T10:43:02;0.85;;;0.35;;
32748;SDS011;19119;52.474;13.710;2024-02-23T10:45:30;1.10;;;0.22;;
32748;SDS011;19119;52.474;13.710;2024-02-23T10:47:56;2.97;;;0.50;;
32748;SDS011;19119;52.474;13.710;2024-02-23T10:50:22;0.20;;;0.20;;
32748;SDS011;19119;52.474;13.710;2024-02-23T10:52:49;1.20;;;0.50;;
32748;SDS011;19119;52.474;13.710;2024-02-23T10:55:15;1.15;;;0.50;;
32748;SDS011;19119;52.474;13.710;2024-02-23T10:57:41;1.30;;;0.40;;
32748;SDS011;19119;52.474;13.710;2024-02-23T11:00:07;1.42;;;0.30;;
32748;SDS011;19119;52.474;13.710;2024-02-23T11:02:46;1.27;;;0.40;;
32748;SDS011;19119;52.474;13.710;2024-02-23T11:05:16;2.33;;;0.30;;
32748;SDS011;19119;52.474;13.710;2024-02-23T11:07:43;1.63;;;0.43;;
32748;SDS011;19119;52.474;13.710;2024-02-23T11:10:14;2.03;;;0.35;;
32748;SDS011;19119;52.474;13.710;2024-02-23T11:12:40;1.35;;;0.30;;
32748;SDS011;19119;52.474;13.710;2024-02-23T11:15:06;1.52;;;0.40;;
32748;SDS011;19119;52.474;13.710;2024-02-23T11:17:32;4.97;;;0.50;;
32748;SDS011;19119;52.474;13.710;2024-02-23T11:20:02;3.35;;;0.40;;
32748;SDS011;19119;52.474;13.710;2024-02-23T11:22:32;2.63;;;0.47;;
32748;SDS011;19119;52.474;13.710;2024-02-23T11:25:00;2.20;;;0.47;;
32748;SDS011;19119;52.474;13.710;2024-02-23T11:27:30;0.90;;;0.43;;
32748;SDS011;19119;52.474;13.710;2024-02-23T11:29:59;0.63;;;0.40;;
32748;SDS011;19119;52.474;13.710;2024-02-23T11:32:37;0.77;;;0.45;;
32748;SDS011;19119;52.474;13.710;2024-02-23T11:35:05;0.82;;;0.40;;
32748;SDS011;19119;52.474;13.710;2024-02-23T11:37:31;2.13;;;0.32;;
32748;SDS011;19119;52.474;13.710;2024-02-23T11:39:58;2.17;;;0.55;;
32748;SDS011;19119;52.474;13.710;2024-02-23T11:42:26;4.00;;;0.43;;
32748;SDS011;19119;52.474;13.710;2024-02-23T11:44:52;2.50;;;1.02;;
32748;SDS011;19119;52.474;13.710;2024-02-23T11:47:18;3.22;;;0.65;;
32748;SDS011;19119;52.474;13.710;2024-02-23T11:49:44;1.02;;;0.40;;
32748;SDS011;19119;52.474;13.710;2024-02-23T11:52:09;1.40;;;0.40;;
32748;SDS011;19119;52.474;13.710;2024-02-23T11:54:35;2.15;;;0.47;;
32748;SDS011;19119;52.474;13.710;2024-02-23T11:57:01;0.32;;;0.30;;
32748;SDS011;19119;52.474;13.710;2024-02-23T11:59:26;1.25;;;0.55;;
32748;SDS011;19119;52.474;13.710;2024-02-23T12:01:52;2.65;;;0.60;;
32748;SDS011;19119;52.474;13.710;2024-02-23T12:04:17;1.40;;;0.50;;
32748;SDS011;19119;52.474;13.710;2024-02-23T12:06:43;0.75;;;0.30;;
32748;SDS011;19119;52.474;13.710;2024-02-23T12:09:08;2.70;;;0.65;;
32748;SDS011;19119;52.474;13.710;2024-02-23T12:11:34;2.17;;;0.47;;
32748;SDS011;19119;52.474;13.710;2024-02-23T12:14:00;2.63;;;0.77;;
32748;SDS011;19119;52.474;13.710;2024-02-23T12:16:32;4.22;;;0.52;;
32748;SDS011;19119;52.474;13.710;2024-02-23T12:18:59;2.78;;;0.55;;
32748;SDS011;19119;52.474;13.710;2024-02-23T12:21:26;1.95;;;0.63;;
32748;SDS011;19119;52.474;13.710;2024-02-23T12:23:52;1.73;;;0.65;;
32748;SDS011;19119;52.474;13.710;2024-02-23T12:26:18;2.55;;;0.63;;
32748;SDS011;19119;52.474;13.710;2024-02-23T12:28:44;2.35;;;0.40;;
32748;SDS011;19119;52.474;13.710;2024-02-23T12:31:10;3.67;;;1.10;;
32748;SDS011;19119;52.474;13.710;2024-02-23T12:33:37;1.30;;;0.55;;
32748;SDS011;19119;52.474;13.710;2024-02-23T12:36:06;5.38;;;1.85;;
32748;SDS011;19119;52.474;13.710;2024-02-23T12:38:33;2.67;;;0.60;;
32748;SDS011;19119;52.474;13.710;2024-02-23T12:40:59;1.10;;;0.60;;
32748;SDS011;19119;52.474;13.710;2024-02-23T12:43:25;0.65;;;0.47;;
32748;SDS011;19119;52.474;13.710;2024-02-23T12:45:54;1.02;;;0.50;;
32748;SDS011;19119;52.474;13.710;2024-02-23T12:48:20;1.17;;;0.50;;
32748;SDS011;19119;52.474;13.710;2024-02-23T12:50:47;1.92;;;0.40;;
32748;SDS011;19119;52.474;13.710;2024-02-23T12:53:30;2.90;;;1.02;;
32748;SDS011;19119;52.474;13.710;2024-02-23T12:55:57;1.58;;;0.77;;
32748;SDS011;19119;52.474;13.710;2024-02-23T12:58:23;1.77;;;0.60;;
32748;SDS011;19119;52.474;13.710;2024-02-23T13:00:49;2.05;;;0.70;;
32748;SDS011;19119;52.474;13.710;2024-02-23T13:03:14;1.42;;;0.40;;
32748;SDS011;19119;52.474;13.710;2024-02-23T13:05:40;6.57;;;0.80;;
32748;SDS011;19119;52.474;13.710;2024-02-23T13:08:05;1.67;;;0.75;;
32748;SDS011;19119;52.474;13.710;2024-02-23T13:10:31;2.63;;;1.65;;
32748;SDS011;19119;52.474;13.710;2024-02-23T13:12:57;4.13;;;0.98;;
32748;SDS011;19119;52.474;13.710;2024-02-23T13:15:22;2.92;;;1.55;;
32748;SDS011;19119;52.474;13.710;2024-02-23T13:17:47;1.70;;;1.00;;
32748;SDS011;19119;52.474;13.710;2024-02-23T13:20:13;2.28;;;1.10;;
32748;SDS011;19119;52.474;13.710;2024-02-23T13:22:39;3.00;;;1.58;;
32748;SDS011;19119;52.474;13.710;2024-02-23T13:25:04;4.20;;;2.00;;
32748;SDS011;19119;52.474;13.710;2024-02-23T13:27:31;4.03;;;1.35;;
32748;SDS011;19119;52.474;13.710;2024-02-23T13:29:56;2.33;;;0.73;;
32748;SDS011;19119;52.474;13.710;2024-02-23T13:32:21;1.33;;;0.60;;
32748;SDS011;19119;52.474;13.710;2024-02-23T13:34:47;3.92;;;1.17;;
32748;SDS011;19119;52.474;13.710;2024-02-23T13:37:17;3.47;;;1.20;;
32748;SDS011;19119;52.474;13.710;2024-02-23T13:39:42;4.53;;;1.10;;
32748;SDS011;19119;52.474;13.710;2024-02-23T13:42:08;2.83;;;0.90;;
32748;SDS011;19119;52.474;13.710;2024-02-23T13:44:34;1.88;;;0.70;;
32748;SDS011;19119;52.474;13.710;2024-02-23T13:47:00;2.35;;;0.90;;
32748;SDS011;19119;52.474;13.710;2024-02-23T13:49:26;1.95;;;0.80;;
32748;SDS011;19119;52.474;13.710;2024-02-23T13:51:51;0.88;;;0.63;;
32748;SDS011;19119;52.474;13.710;2024-02-23T13:54:16;2.03;;;0.68;;
32748;SDS011;19119;52.474;13.710;2024-02-23T13:56:42;2.72;;;1.00;;
32748;SDS011;19119;52.474;13.710;2024-02-23T13:59:07;4.28;;;2.33;;
32748;SDS011;19119;52.474;13.710;2024-02-23T14:01:33;2.53;;;0.93;;
32748;SDS011;19119;52.474;13.710;2024-02-23T14:03:58;3.17;;;0.90;;
32748;SDS011;19119;52.474;13.710;2024-02-23T14:06:24;4.22;;;1.63;;
32748;SDS011;19119;52.474;13.710;2024-02-23T14:08:49;2.78;;;0.90;;
32748;SDS011;19119;52.474;13.710;2024-02-23T14:11:15;2.83;;;1.55;;
32748;SDS011;19119;52.474;13.710;2024-02-23T14:13:40;1.55;;;0.80;;
32748;SDS011;19119;52.474;13.710;2024-02-23T14:16:06;2.67;;;0.90;;
32748;SDS011;19119;52.474;13.710;2024-02-23T14:18:32;2.17;;;1.00;;
32748;SDS011;19119;52.474;13.710;2024-02-23T14:21:01;3.53;;;1.65;;
32748;SDS011;19119;52.474;13.710;2024-02-23T14:23:28;1.02;;;0.73;;
32748;SDS011;19119;52.474;13.710;2024-02-23T14:25:53;6.13;;;2.95;;